createdAt,value
2019-02-14T00:00:45.495Z,16.60
2019-02-14T00:03:13.475Z,15.83
2019-02-14T00:05:41.486Z,16.20
2019-02-14T00:08:09.569Z,16.00
2019-02-14T00:10:37.553Z,15.63
2019-02-14T00:13:05.601Z,16.13
2019-02-14T00:15:33.638Z,15.87
2019-02-14T00:18:01.665Z,16.07
2019-02-14T00:20:29.658Z,14.87
2019-02-14T00:22:57.655Z,16.10
2019-02-14T00:25:25.622Z,16.10
2019-02-14T00:27:53.752Z,16.20
2019-02-14T00:30:21.787Z,16.13
2019-02-14T00:32:49.718Z,16.47
2019-02-14T00:35:24.879Z,16.03
2019-02-14T00:37:47.471Z,15.53
2019-02-14T00:40:15.402Z,16.23
2019-02-14T00:42:43.410Z,15.87
2019-02-14T00:45:11.435Z,16.73
2019-02-14T00:47:39.372Z,15.57
2019-02-14T00:50:07.496Z,16.40
2019-02-14T00:52:35.520Z,15.47
2019-02-14T00:55:03.444Z,15.33
2019-02-14T00:57:31.435Z,15.73
2019-02-14T00:59:59.454Z,14.90
2019-02-14T01:02:27.379Z,15.57
2019-02-14T01:04:55.431Z,15.87
2019-02-14T01:07:26.403Z,16.03
2019-02-14T01:09:54.423Z,16.10
2019-02-14T01:12:22.443Z,16.53
2019-02-14T01:14:50.530Z,15.77
2019-02-14T01:17:18.528Z,15.77
2019-02-14T01:19:46.508Z,16.13
2019-02-14T01:22:14.597Z,17.07
2019-02-14T01:24:42.563Z,15.17
2019-02-14T01:27:10.637Z,16.20
2019-02-14T01:29:38.644Z,16.10
2019-02-14T01:32:06.646Z,16.30
2019-02-14T01:34:34.585Z,16.67
2019-02-14T01:37:02.565Z,15.43
2019-02-14T01:39:30.514Z,16.47
2019-02-14T01:41:58.441Z,16.60
2019-02-14T01:44:26.445Z,16.33
2019-02-14T01:46:54.648Z,16.90
2019-02-14T01:49:22.616Z,15.20
2019-02-14T01:51:50.569Z,16.73
2019-02-14T01:54:18.619Z,16.47
2019-02-14T01:56:46.586Z,17.33
2019-02-14T01:59:14.525Z,16.43
2019-02-14T02:01:42.548Z,16.10
2019-02-14T02:04:10.511Z,17.07
2019-02-14T02:06:38.640Z,17.23
2019-02-14T02:09:07.458Z,16.83
2019-02-14T02:11:35.425Z,16.40
2019-02-14T02:14:03.424Z,16.30
2019-02-14T02:16:31.529Z,17.20
2019-02-14T02:18:59.468Z,18.30
2019-02-14T02:21:28.719Z,16.97
2019-02-14T02:23:56.672Z,16.93
2019-02-14T02:26:24.614Z,16.73
2019-02-14T02:28:52.594Z,16.83
2019-02-14T02:31:22.926Z,17.23
2019-02-14T02:33:50.884Z,19.83
2019-02-14T02:36:18.860Z,18.87
2019-02-14T02:38:46.831Z,15.93
2019-02-14T02:41:14.775Z,18.27
2019-02-14T02:43:42.771Z,16.87
2019-02-14T02:46:10.906Z,18.17
2019-02-14T02:48:38.864Z,16.93
2019-02-14T02:51:06.983Z,17.10
2019-02-14T02:53:36.289Z,19.03
2019-02-14T02:56:04.220Z,19.90
2019-02-14T02:58:32.319Z,19.10
2019-02-14T03:01:00.332Z,18.23
2019-02-14T03:03:28.334Z,19.03
2019-02-14T03:05:56.343Z,18.23
2019-02-14T03:08:24.273Z,17.13
2019-02-14T03:10:54.074Z,16.90
2019-02-14T03:13:22.097Z,17.87
2019-02-14T03:15:50.017Z,16.90
2019-02-14T03:18:17.923Z,17.37
2019-02-14T03:20:45.953Z,16.90
2019-02-14T03:23:13.895Z,18.37
2019-02-14T03:25:41.997Z,18.43
2019-02-14T03:28:09.974Z,18.53
2019-02-14T03:30:37.938Z,18.37
2019-02-14T03:33:05.845Z,17.80
2019-02-14T03:35:33.900Z,18.23
2019-02-14T03:38:01.832Z,18.90
2019-02-14T03:40:30.033Z,18.10
2019-02-14T03:42:58.134Z,16.87
2019-02-14T03:45:26.016Z,19.07
2019-02-14T03:47:53.948Z,19.33
2019-02-14T03:50:22.011Z,18.93
2019-02-14T03:52:49.910Z,18.07
2019-02-14T03:55:17.848Z,19.07
2019-02-14T03:57:46.029Z,18.63
2019-02-14T04:00:14.927Z,17.77
2019-02-14T04:02:42.885Z,19.10
2019-02-14T04:05:10.882Z,17.87
2019-02-14T04:07:38.861Z,19.17
2019-02-14T04:10:07.593Z,19.17
2019-02-14T04:12:35.604Z,17.13
2019-02-14T04:15:03.734Z,19.40
2019-02-14T04:17:31.746Z,18.10
2019-02-14T04:19:59.677Z,17.90
2019-02-14T04:22:27.596Z,17.27
2019-02-14T04:24:55.562Z,16.97
2019-02-14T04:27:23.746Z,17.07
2019-02-14T04:29:52.014Z,18.57
2019-02-14T04:32:20.067Z,17.27
2019-02-14T04:34:48.033Z,17.77
2019-02-14T04:37:16.008Z,17.67
2019-02-14T04:39:43.975Z,17.67
2019-02-14T04:42:12.064Z,18.73
2019-02-14T04:44:40.020Z,18.37
2019-02-14T04:47:07.972Z,18.53
2019-02-14T04:49:35.907Z,18.53
2019-02-14T04:52:03.869Z,20.00
2019-02-14T04:54:31.846Z,18.33
2019-02-14T04:56:59.865Z,17.80
2019-02-14T04:59:27.795Z,17.80
2019-02-14T05:01:55.726Z,17.87
2019-02-14T05:04:23.634Z,18.03
2019-02-14T05:06:51.709Z,18.93
2019-02-14T05:09:19.631Z,17.93
2019-02-14T05:11:47.559Z,17.47
2019-02-14T05:14:15.764Z,17.47
2019-02-14T05:16:43.693Z,17.17
2019-02-14T05:19:11.727Z,17.93
2019-02-14T05:21:39.647Z,18.40
2019-02-14T05:24:09.395Z,18.93
2019-02-14T05:26:37.354Z,17.17
2019-02-14T05:29:05.275Z,16.90
2019-02-14T05:31:33.258Z,17.73
2019-02-14T05:34:01.501Z,16.83
2019-02-14T05:36:29.568Z,17.67
2019-02-14T05:38:57.538Z,15.97
2019-02-14T05:41:25.477Z,16.77
2019-02-14T05:43:53.480Z,17.67
2019-02-14T05:46:21.360Z,16.17
2019-02-14T05:48:49.340Z,17.50
2019-02-14T05:51:17.354Z,15.83
2019-02-14T05:53:45.479Z,17.63
2019-02-14T05:56:13.395Z,17.97
2019-02-14T05:58:41.369Z,17.70
2019-02-14T06:01:10.858Z,15.97
2019-02-14T06:03:38.757Z,16.27
2019-02-14T06:06:06.858Z,15.63
2019-02-14T06:08:34.897Z,15.93
2019-02-14T06:11:02.858Z,16.23
2019-02-14T06:13:30.826Z,16.30
2019-02-14T06:15:58.798Z,16.33
2019-02-14T06:18:26.918Z,15.73
2019-02-14T06:20:54.937Z,17.07
2019-02-14T06:23:23.083Z,16.93
2019-02-14T06:25:51.700Z,15.13
2019-02-14T06:28:20.178Z,16.47
2019-02-14T06:30:48.209Z,16.27
2019-02-14T06:33:16.125Z,15.20
2019-02-14T06:35:44.057Z,15.77
2019-02-14T06:38:11.956Z,15.90
2019-02-14T06:40:39.895Z,16.30
2019-02-14T06:43:07.862Z,16.10
2019-02-14T06:45:35.856Z,15.80
2019-02-14T06:48:03.894Z,15.37
2019-02-14T06:50:34.738Z,16.20
2019-02-14T06:53:01.551Z,14.97
2019-02-14T06:55:29.620Z,16.47
2019-02-14T06:57:58.980Z,17.00
2019-02-14T07:00:26.968Z,16.57
2019-02-14T07:02:54.905Z,16.67
2019-02-14T07:05:24.960Z,16.33
2019-02-14T07:07:52.991Z,16.73
2019-02-14T07:10:21.011Z,16.20
2019-02-14T07:12:49.410Z,16.43
2019-02-14T07:15:17.682Z,16.97
2019-02-14T07:17:45.735Z,16.73
2019-02-14T07:20:14.118Z,16.47
2019-02-14T07:22:42.101Z,16.47
2019-02-14T07:25:10.523Z,16.80
2019-02-14T07:27:39.286Z,16.77
2019-02-14T07:30:09.052Z,16.93
2019-02-14T07:32:37.150Z,15.33
2019-02-14T07:35:05.137Z,15.57
2019-02-14T07:37:33.130Z,16.53
2019-02-14T07:40:01.091Z,13.60
2019-02-14T07:42:29.901Z,14.77
2019-02-14T07:44:57.828Z,13.90
2019-02-14T07:47:25.797Z,14.77
2019-02-14T07:49:54.113Z,13.73
2019-02-14T07:52:25.138Z,13.03
2019-02-14T07:54:52.093Z,12.77
2019-02-14T07:57:20.017Z,13.37
2019-02-14T07:59:47.914Z,13.33
2019-02-14T08:02:15.975Z,13.23
2019-02-14T08:04:43.880Z,13.23
2019-02-14T08:07:11.809Z,14.23
2019-02-14T08:09:39.856Z,15.10
2019-02-14T08:12:07.755Z,14.07
2019-02-14T08:14:35.650Z,14.93
2019-02-14T08:17:03.776Z,15.20
2019-02-14T08:19:31.771Z,14.80
2019-02-14T08:21:59.711Z,15.00
2019-02-14T08:24:27.719Z,14.47
2019-02-14T08:26:55.674Z,14.60
2019-02-14T08:29:23.573Z,13.83
2019-02-14T08:31:51.561Z,14.53
2019-02-14T08:34:19.523Z,13.60
2019-02-14T08:36:47.569Z,12.97
2019-02-14T08:39:15.560Z,13.70
2019-02-14T08:41:43.601Z,12.90
2019-02-14T08:44:13.497Z,13.83
2019-02-14T08:46:41.618Z,13.13
2019-02-14T08:49:09.531Z,13.87
2019-02-14T08:51:37.437Z,13.77
2019-02-14T08:54:05.496Z,13.33
2019-02-14T08:56:33.600Z,13.20
2019-02-14T08:59:01.585Z,13.73
2019-02-14T09:01:29.612Z,13.73
2019-02-14T09:03:59.203Z,13.63
2019-02-14T09:06:27.159Z,14.40
2019-02-14T09:08:55.168Z,14.17
2019-02-14T09:11:24.710Z,15.77
2019-02-14T09:13:52.641Z,13.20
2019-02-14T09:16:21.575Z,13.97
2019-02-14T09:18:49.811Z,13.73
2019-02-14T09:21:17.809Z,14.23
2019-02-14T09:23:45.839Z,13.87
2019-02-14T09:26:13.888Z,14.87
2019-02-14T09:28:41.881Z,13.97
2019-02-14T09:31:11.291Z,13.40
2019-02-14T09:33:39.372Z,12.93
2019-02-14T09:36:07.444Z,12.23
2019-02-14T09:38:35.665Z,12.63
2019-02-14T09:41:03.672Z,11.87
2019-02-14T09:43:31.611Z,11.67
2019-02-14T09:45:59.620Z,12.53
2019-02-14T09:48:27.831Z,12.17
2019-02-14T09:50:55.748Z,12.20
2019-02-14T09:53:23.723Z,12.37
2019-02-14T09:55:51.711Z,11.90
2019-02-14T09:58:19.962Z,12.63
2019-02-14T10:00:47.957Z,12.13
2019-02-14T10:03:16.040Z,13.50
2019-02-14T10:05:45.629Z,13.47
2019-02-14T10:08:13.801Z,12.60
2019-02-14T10:10:41.770Z,12.23
2019-02-14T10:13:09.708Z,12.47
2019-02-14T10:15:37.915Z,13.33
2019-02-14T10:18:05.929Z,12.93
2019-02-14T10:20:34.012Z,12.57
2019-02-14T10:23:02.107Z,12.77
2019-02-14T10:25:30.267Z,12.03
2019-02-14T10:27:58.295Z,12.10
2019-02-14T10:30:26.346Z,13.00
2019-02-14T10:32:54.303Z,13.37
2019-02-14T10:35:22.499Z,12.87
2019-02-14T10:37:50.659Z,11.87
2019-02-14T10:40:18.769Z,11.93
2019-02-14T10:42:46.757Z,11.50
2019-02-14T10:45:15.517Z,11.57
2019-02-14T10:47:43.717Z,12.17
2019-02-14T10:50:12.086Z,11.47
2019-02-14T10:52:40.167Z,10.67
2019-02-14T10:55:08.827Z,11.87
2019-02-14T10:57:37.501Z,12.03
2019-02-14T11:00:08.190Z,11.67
2019-02-14T11:02:36.236Z,11.37
2019-02-14T11:05:04.336Z,11.80
2019-02-14T11:07:32.421Z,11.83
2019-02-14T11:10:02.462Z,12.20
2019-02-14T11:12:30.568Z,11.37
2019-02-14T11:14:58.600Z,11.90
2019-02-14T11:17:29.488Z,10.57
2019-02-14T11:19:57.503Z,11.30
2019-02-14T11:22:25.706Z,10.57
2019-02-14T11:25:04.601Z,10.37
2019-02-14T11:27:32.620Z,10.53
2019-02-14T11:30:00.601Z,10.50
2019-02-14T11:32:28.615Z,9.23
2019-02-14T11:34:56.774Z,9.67
2019-02-14T11:37:54.954Z,10.67
2019-02-14T11:40:23.020Z,10.37
2019-02-14T11:42:51.019Z,10.00
2019-02-14T11:45:19.369Z,10.30
2019-02-14T11:47:47.459Z,9.87
2019-02-14T11:50:15.828Z,9.47
2019-02-14T11:52:43.932Z,9.17
2019-02-14T11:55:12.077Z,10.60
2019-02-14T11:57:40.056Z,9.60
2019-02-14T12:00:09.960Z,9.17
2019-02-14T12:02:38.055Z,9.23
2019-02-14T12:05:06.050Z,9.27
2019-02-14T12:07:34.032Z,9.20
2019-02-14T12:10:02.035Z,8.70
2019-02-14T12:12:30.041Z,9.10
2019-02-14T12:14:58.080Z,8.50
2019-02-14T12:17:27.341Z,8.17
2019-02-14T12:20:13.287Z,8.40
2019-02-14T12:22:47.173Z,8.03
2019-02-14T12:25:15.095Z,8.43
2019-02-14T12:27:43.234Z,7.97
2019-02-14T12:30:12.275Z,7.40
2019-02-14T12:32:40.317Z,8.57
2019-02-14T12:35:08.335Z,10.40
2019-02-14T12:37:36.364Z,10.53
2019-02-14T12:40:04.540Z,10.17
2019-02-14T12:42:32.472Z,11.53
2019-02-14T12:45:00.402Z,11.67
2019-02-14T12:47:28.389Z,10.40
2019-02-14T12:49:56.397Z,10.53
2019-02-14T12:52:24.407Z,10.30
2019-02-14T12:54:52.455Z,10.57
2019-02-14T12:57:20.477Z,10.00
2019-02-14T12:59:48.869Z,9.73
2019-02-14T13:02:16.860Z,9.90
2019-02-14T13:04:44.938Z,9.07
2019-02-14T13:07:12.987Z,9.87
2019-02-14T13:09:42.280Z,9.57
2019-02-14T13:12:10.220Z,9.53
2019-02-14T13:14:38.144Z,9.77
2019-02-14T13:17:08.218Z,9.80
2019-02-14T13:19:36.238Z,13.83
2019-02-14T13:22:05.620Z,11.10
2019-02-14T13:24:33.622Z,9.53
2019-02-14T13:27:01.711Z,10.00
2019-02-14T13:29:29.643Z,11.70
2019-02-14T13:31:57.682Z,9.63
2019-02-14T13:34:25.727Z,9.87
2019-02-14T13:37:01.353Z,9.53
2019-02-14T13:39:29.730Z,9.37
2019-02-14T13:41:54.620Z,10.07
2019-02-14T13:44:22.645Z,9.93
2019-02-14T13:46:50.734Z,9.37
2019-02-14T13:49:19.032Z,9.50
2019-02-14T13:51:46.969Z,9.90
2019-02-14T13:54:14.878Z,9.37
2019-02-14T13:56:42.806Z,9.17
2019-02-14T13:59:10.876Z,9.63
2019-02-14T14:01:38.958Z,8.60
2019-02-14T14:04:06.926Z,10.17
2019-02-14T14:06:34.918Z,11.80
2019-02-14T14:09:03.342Z,11.73
2019-02-14T14:11:31.303Z,11.53
2019-02-14T14:13:59.376Z,10.97
2019-02-14T14:16:27.514Z,10.40
2019-02-14T14:18:55.403Z,9.63
2019-02-14T14:21:23.346Z,10.70
2019-02-14T14:23:51.311Z,9.53
2019-02-14T14:26:19.257Z,10.70
2019-02-14T14:28:47.298Z,10.40
2019-02-14T14:31:15.274Z,10.00
2019-02-14T14:33:43.339Z,10.33
2019-02-14T14:36:11.320Z,9.43
2019-02-14T14:38:39.248Z,9.80
2019-02-14T14:41:07.171Z,9.53
2019-02-14T14:43:40.033Z,10.73
2019-02-14T14:46:18.137Z,9.93
2019-02-14T14:48:46.133Z,10.07
2019-02-14T14:51:14.160Z,9.87
2019-02-14T14:53:42.140Z,9.47
2019-02-14T14:56:10.154Z,11.17
2019-02-14T14:58:38.121Z,11.20
2019-02-14T15:01:06.198Z,10.80
2019-02-14T15:03:37.405Z,11.53
2019-02-14T15:06:05.876Z,11.30
2019-02-14T15:08:33.855Z,10.87
2019-02-14T15:11:01.796Z,11.27
2019-02-14T15:13:29.887Z,11.07
2019-02-14T15:15:57.856Z,12.10
2019-02-14T15:18:25.765Z,11.90
2019-02-14T15:20:54.202Z,12.17
2019-02-14T15:23:22.188Z,11.80
2019-02-14T15:25:50.170Z,11.50
2019-02-14T15:28:18.219Z,11.67
2019-02-14T15:30:46.346Z,10.93
2019-02-14T15:33:14.322Z,11.50
2019-02-14T15:35:42.275Z,11.83
2019-02-14T15:38:11.890Z,11.73
2019-02-14T15:40:39.946Z,11.50
2019-02-14T15:43:07.887Z,11.33
2019-02-14T15:45:35.785Z,12.07
2019-02-14T15:48:03.839Z,11.50
2019-02-14T15:50:32.219Z,11.30
2019-02-14T15:53:00.232Z,12.30
2019-02-14T15:55:28.206Z,12.20
2019-02-14T15:57:56.237Z,11.97
2019-02-14T16:00:24.173Z,12.70
2019-02-14T16:02:52.599Z,11.30
2019-02-14T16:05:20.651Z,12.17
2019-02-14T16:07:48.727Z,12.43
2019-02-14T16:10:18.814Z,12.27
2019-02-14T16:12:46.558Z,11.60
2019-02-14T16:15:14.576Z,11.97
2019-02-14T16:17:42.566Z,12.43
2019-02-14T16:20:11.077Z,12.13
2019-02-14T16:22:40.271Z,11.73
2019-02-14T16:25:09.232Z,12.60
2019-02-14T16:27:37.489Z,12.63
2019-02-14T16:30:07.697Z,12.23
2019-02-14T16:32:37.349Z,11.47
2019-02-14T16:35:07.044Z,11.83
2019-02-14T16:37:37.984Z,11.47
2019-02-14T16:40:06.725Z,11.83
2019-02-14T16:42:34.796Z,11.07
2019-02-14T16:45:02.790Z,12.40
2019-02-14T16:47:30.934Z,12.30
2019-02-14T16:49:58.922Z,11.17
2019-02-14T16:52:27.020Z,11.80
2019-02-14T16:54:57.238Z,12.30
2019-02-14T16:57:25.317Z,12.07
2019-02-14T16:59:58.004Z,12.07
2019-02-14T17:02:26.081Z,11.87
2019-02-14T17:04:55.535Z,11.80
2019-02-14T17:07:26.127Z,11.63
2019-02-14T17:09:55.639Z,11.87
2019-02-14T17:12:23.780Z,11.67
2019-02-14T17:14:52.208Z,11.47
2019-02-14T17:17:27.662Z,13.87
2019-02-14T17:19:50.088Z,13.60
2019-02-14T17:22:18.196Z,12.97
2019-02-14T17:24:48.034Z,13.53
2019-02-14T17:27:16.234Z,11.77
2019-02-14T17:29:44.392Z,12.27
2019-02-14T17:32:12.511Z,12.67
2019-02-14T17:34:40.565Z,14.00
2019-02-14T17:37:08.721Z,14.03
2019-02-14T17:39:36.849Z,11.57
2019-02-14T17:42:05.413Z,13.07
2019-02-14T17:44:34.871Z,12.93
2019-02-14T17:47:02.985Z,12.27
2019-02-14T17:49:31.061Z,14.20
2019-02-14T17:51:59.130Z,12.60
2019-02-14T17:54:27.244Z,13.07
2019-02-14T17:56:55.287Z,13.60
2019-02-14T17:59:23.375Z,12.20
2019-02-14T18:01:53.776Z,12.07
2019-02-14T18:04:22.535Z,12.00
2019-02-14T18:06:50.567Z,13.27
2019-02-14T18:09:18.647Z,13.07
2019-02-14T18:11:48.031Z,12.30
2019-02-14T18:14:16.038Z,12.80
2019-02-14T18:16:44.109Z,13.10
2019-02-14T18:19:12.182Z,12.50
2019-02-14T18:21:40.126Z,14.80
2019-02-14T18:24:08.188Z,12.80
2019-02-14T18:26:36.170Z,14.90
2019-02-14T18:29:04.853Z,58.47
2019-02-14T18:31:32.980Z,13.60
2019-02-14T18:34:01.120Z,10.77
2019-02-14T18:36:29.127Z,12.27
2019-02-14T18:38:57.631Z,11.60
2019-02-14T18:41:26.423Z,11.67
2019-02-14T18:43:54.426Z,12.13
2019-02-14T18:46:22.493Z,10.87
2019-02-14T18:48:50.692Z,11.33
2019-02-14T18:51:23.822Z,12.47
2019-02-14T18:53:51.969Z,12.23
2019-02-14T18:56:19.984Z,12.30
2019-02-14T18:58:47.936Z,11.80
2019-02-14T19:01:15.906Z,12.00
2019-02-14T19:03:45.075Z,11.33
2019-02-14T19:06:13.572Z,12.50
2019-02-14T19:08:43.449Z,12.77
2019-02-14T19:11:15.268Z,12.30
2019-02-14T19:13:42.265Z,11.90
2019-02-14T19:16:10.615Z,11.83
2019-02-14T19:18:38.870Z,11.93
2019-02-14T19:21:07.217Z,12.87
2019-02-14T19:23:35.978Z,11.90
2019-02-14T19:26:06.608Z,14.20
2019-02-14T19:28:34.724Z,12.03
2019-02-14T19:31:03.013Z,12.07
2019-02-14T19:33:34.251Z,11.27
2019-02-14T19:36:02.279Z,11.80
2019-02-14T19:38:30.661Z,12.57
2019-02-14T19:40:58.825Z,11.30
2019-02-14T19:43:27.206Z,11.80
2019-02-14T19:45:55.377Z,11.63
2019-02-14T19:48:23.654Z,12.03
2019-02-14T19:50:51.843Z,11.70
2019-02-14T19:53:22.518Z,13.30
2019-02-14T19:55:50.877Z,12.90
2019-02-14T19:58:20.199Z,12.47
2019-02-14T20:00:48.242Z,12.90
2019-02-14T20:03:16.670Z,12.90
2019-02-14T20:05:44.753Z,12.43
2019-02-14T20:08:13.212Z,11.70
2019-02-14T20:10:41.355Z,11.13
2019-02-14T20:13:09.523Z,12.67
2019-02-14T20:15:37.805Z,11.97
2019-02-14T20:18:05.983Z,11.63
2019-02-14T20:20:34.073Z,12.33
2019-02-14T20:23:02.119Z,12.10
2019-02-14T20:25:30.263Z,12.00
2019-02-14T20:27:58.361Z,12.93
2019-02-14T20:30:27.039Z,12.83
2019-02-14T20:33:03.956Z,12.63
2019-02-14T20:35:27.025Z,12.37
2019-02-14T20:37:55.145Z,12.40
2019-02-14T20:40:23.623Z,11.33
2019-02-14T20:42:51.778Z,11.93
2019-02-14T20:45:21.897Z,12.00
2019-02-14T20:47:50.002Z,11.73
2019-02-14T20:50:29.982Z,13.63
2019-02-14T20:52:58.211Z,13.27
2019-02-14T20:55:26.274Z,12.30
2019-02-14T20:57:54.369Z,12.17
2019-02-14T21:00:28.947Z,12.30
2019-02-14T21:02:57.239Z,11.50
2019-02-14T21:05:25.384Z,12.73
2019-02-14T21:07:54.859Z,12.47
2019-02-14T21:10:22.936Z,12.53
2019-02-14T21:12:50.976Z,12.13
2019-02-14T21:15:19.267Z,12.60
2019-02-14T21:17:47.345Z,12.20
2019-02-14T21:20:16.824Z,12.90
2019-02-14T21:22:45.941Z,12.93
2019-02-14T21:25:14.097Z,13.47
2019-02-14T21:27:43.391Z,13.57
2019-02-14T21:30:13.509Z,12.77
2019-02-14T21:32:41.865Z,12.17
2019-02-14T21:35:12.551Z,12.60
2019-02-14T21:37:40.720Z,13.10
2019-02-14T21:40:09.489Z,13.43
2019-02-14T21:42:37.669Z,13.07
2019-02-14T21:45:05.989Z,13.17
2019-02-14T21:47:34.075Z,13.40
2019-02-14T21:50:03.649Z,11.63
2019-02-14T21:52:31.706Z,13.10
2019-02-14T21:55:02.262Z,12.33
2019-02-14T21:57:30.362Z,12.00
2019-02-14T21:59:58.422Z,13.10
2019-02-14T22:02:26.404Z,12.07
2019-02-14T22:04:54.381Z,10.70
2019-02-14T22:07:22.419Z,12.50
2019-02-14T22:09:50.487Z,13.37
2019-02-14T22:12:37.175Z,12.80
2019-02-14T22:14:48.188Z,11.03
2019-02-14T22:17:17.589Z,11.70
2019-02-14T22:19:45.596Z,11.60
2019-02-14T22:22:13.721Z,11.60
2019-02-14T22:24:41.769Z,11.73
2019-02-14T22:27:09.864Z,10.90
2019-02-14T22:29:37.905Z,10.10
2019-02-14T22:32:05.888Z,10.87
2019-02-14T22:34:33.803Z,7.17
2019-02-14T22:37:01.885Z,11.73
2019-02-14T22:39:30.225Z,10.90
2019-02-14T22:41:58.429Z,13.57
2019-02-14T22:44:26.431Z,12.03
2019-02-14T22:46:54.355Z,12.70
2019-02-14T22:49:22.319Z,12.87
2019-02-14T22:51:50.404Z,11.50
2019-02-14T22:54:18.467Z,11.70
2019-02-14T22:56:46.506Z,11.50
2019-02-14T22:59:14.554Z,11.80
2019-02-14T23:01:43.460Z,10.93
2019-02-14T23:04:11.571Z,11.43
2019-02-14T23:06:39.568Z,11.80
2019-02-14T23:09:09.133Z,11.87
2019-02-14T23:11:37.289Z,11.13
2019-02-14T23:14:05.335Z,10.33
2019-02-14T23:16:33.353Z,11.13
2019-02-14T23:19:01.553Z,11.10
2019-02-14T23:21:29.600Z,11.53
2019-02-14T23:23:57.627Z,11.40
2019-02-14T23:26:25.628Z,11.43
2019-02-14T23:28:53.652Z,11.83
2019-02-14T23:31:21.724Z,11.50
2019-02-14T23:33:49.649Z,11.57
2019-02-14T23:36:17.681Z,10.57
2019-02-14T23:38:45.724Z,10.67
2019-02-14T23:41:13.663Z,11.97
2019-02-14T23:43:41.700Z,11.17
2019-02-14T23:46:09.804Z,10.47
2019-02-14T23:48:37.853Z,11.60
2019-02-14T23:51:05.820Z,11.20
2019-02-14T23:53:33.811Z,11.27
2019-02-14T23:56:01.839Z,10.97
2019-02-14T23:58:30.832Z,10.73
